Time;durP1;ratioP1;P1;durP2;ratioP2;P2;SDS_P1;SDS_P2;PMS_P1;PMS_P2;Temp;Humidity;BMP_temperature;BMP_pressure;BME280_temperature;BME280_humidity;BME280_pressure;Samples;Min_cycle;Max_cycle;Signal;HPM_P1;HPM_P2
2022/06/06 00:02:25;;;;;;;0.63;0.40;;;21.80;47.60;;;;;;6198867;28;20026;-73
2022/06/06 00:05:26;;;;;;;0.32;0.32;;;21.80;47.40;;;;;;6200033;28;20022;-73
2022/06/06 00:08:27;;;;;;;0.20;0.20;;;21.80;47.30;;;;;;6209324;28;20025;-73
2022/06/06 00:11:32;;;;;;;0.20;0.20;;;21.80;47.20;;;;;;6222953;28;20026;-73
2022/06/06 00:14:34;;;;;;;0.40;0.40;;;21.80;47.10;;;;;;6203850;28;20034;-73
2022/06/06 00:17:36;;;;;;;0.25;0.25;;;21.90;47.00;;;;;;6200964;28;20031;-73
2022/06/06 00:20:37;;;;;;;0.55;0.43;;;21.90;47.00;;;;;;6222418;28;20076;-73
2022/06/06 00:23:38;;;;;;;0.47;0.30;;;21.90;46.80;;;;;;6212646;28;20022;-72
2022/06/06 00:26:39;;;;;;;0.30;0.30;;;21.90;46.80;;;;;;6198337;28;20032;-73
2022/06/06 00:29:41;;;;;;;0.57;0.40;;;21.90;46.70;;;;;;6198077;28;20061;-73
2022/06/06 00:36:01;;;;;;;0.30;0.30;;;22.00;46.60;;;;;;6219646;28;20041;-73
2022/06/06 00:39:05;;;;;;;0.30;0.30;;;22.00;46.60;;;;;;6211018;28;20421;-73
2022/06/06 00:42:38;;;;;;;0.77;0.55;;;22.00;46.40;;;;;;6197654;28;20027;-73
2022/06/06 00:45:39;;;;;;;0.30;0.30;;;22.00;46.30;;;;;;6221449;28;20037;-72
2022/06/06 00:48:41;;;;;;;0.32;0.32;;;22.00;46.30;;;;;;6215468;28;20049;-73
2022/06/06 00:51:42;;;;;;;0.50;0.40;;;22.00;46.30;;;;;;6196935;28;20034;-75
2022/06/06 00:54:45;;;;;;;0.30;0.30;;;22.00;46.30;;;;;;6206072;28;20033;-73
2022/06/06 00:58:00;;;;;;;0.47;0.30;;;22.00;46.20;;;;;;6223254;28;20431;-73
2022/06/06 01:01:01;;;;;;;0.40;0.33;;;22.00;46.00;;;;;;6196968;28;20026;-73
2022/06/06 01:04:04;;;;;;;0.30;0.30;;;22.00;46.00;;;;;;6197304;28;20029;-72
2022/06/06 01:07:07;;;;;;;0.30;0.30;;;22.00;45.90;;;;;;6197538;28;20034;-73
2022/06/06 01:10:08;;;;;;;0.43;0.40;;;22.00;45.90;;;;;;6195824;28;20033;-74
2022/06/06 01:13:13;;;;;;;0.35;0.35;;;22.00;45.80;;;;;;6203788;28;20052;-73
2022/06/06 01:16:31;;;;;;;0.30;0.30;;;22.00;45.80;;;;;;6197670;28;20022;-73
2022/06/06 01:19:51;;;;;;;0.40;0.40;;;22.10;45.80;;;;;;6207074;28;20393;-74
2022/06/06 01:23:22;;;;;;;2.55;0.30;;;22.10;45.80;;;;;;6221536;28;20056;-73
2022/06/06 01:26:35;;;;;;;0.63;0.40;;;22.10;45.80;;;;;;6196887;28;20018;-72
2022/06/06 01:29:42;;;;;;;0.30;0.30;;;22.00;46.30;;;;;;6205826;28;20455;-73
2022/06/06 01:32:47;;;;;;;0.40;0.40;;;22.10;45.70;;;;;;6199475;28;20082;-74
2022/06/06 01:35:52;;;;;;;0.47;0.32;;;22.00;45.50;;;;;;6196309;28;20054;-74
2022/06/06 01:38:54;;;;;;;0.60;0.57;;;22.10;45.70;;;;;;6198726;28;20053;-72
2022/06/06 01:42:18;;;;;;;0.30;0.30;;;22.10;45.60;;;;;;6218852;28;20439;-73
2022/06/06 01:45:35;;;;;;;0.70;0.22;;;22.10;45.50;;;;;;6207784;28;20443;-71
2022/06/06 01:48:39;;;;;;;0.40;0.30;;;22.10;45.40;;;;;;6197163;28;20037;-72
2022/06/06 01:51:40;;;;;;;0.30;0.30;;;22.10;45.50;;;;;;6215562;28;20045;-72
2022/06/06 01:54:43;;;;;;;0.40;0.30;;;22.10;45.50;;;;;;6196785;28;20019;-73
2022/06/06 01:57:45;;;;;;;0.60;0.50;;;22.10;45.40;;;;;;6193646;28;20022;-72
2022/06/06 02:00:45;;;;;;;0.40;0.40;;;22.10;45.40;;;;;;6209807;28;20110;-72
2022/06/06 02:03:46;;;;;;;0.40;0.40;;;22.10;45.30;;;;;;6220196;28;20029;-72
2022/06/06 02:06:48;;;;;;;0.30;0.30;;;22.10;45.30;;;;;;6215664;28;20030;-72
2022/06/06 02:09:48;;;;;;;0.32;0.32;;;22.10;46.00;;;;;;6214839;28;20018;-72
2022/06/06 02:12:49;;;;;;;0.30;0.30;;;22.10;45.20;;;;;;6178850;28;20100;-72
2022/06/06 02:15:51;;;;;;;0.40;0.30;;;22.10;45.20;;;;;;6208191;28;20481;-73
2022/06/06 02:18:52;;;;;;;0.40;0.30;;;22.20;45.20;;;;;;6220807;28;20026;-73
2022/06/06 02:21:53;;;;;;;0.30;0.30;;;22.20;45.20;;;;;;6198594;28;20062;-73
2022/06/06 02:24:54;;;;;;;0.30;0.30;;;22.10;45.20;;;;;;6199648;28;20030;-74
2022/06/06 02:27:56;;;;;;;0.30;0.30;;;22.10;45.20;;;;;;6219362;28;20543;-72
2022/06/06 02:30:57;;;;;;;0.32;0.32;;;22.10;45.20;;;;;;6204504;28;20145;-74
2022/06/06 02:33:57;;;;;;;0.40;0.40;;;22.10;45.10;;;;;;6195302;28;20156;-73
2022/06/06 02:36:58;;;;;;;0.38;0.30;;;22.20;45.10;;;;;;6195277;28;20668;-72
2022/06/06 02:39:59;;;;;;;0.43;0.43;;;22.10;45.00;;;;;;6197977;28;20030;-73
2022/06/06 02:43:00;;;;;;;0.30;0.30;;;22.20;45.10;;;;;;6219622;28;20117;-73
2022/06/06 02:46:03;;;;;;;0.25;0.25;;;22.20;45.10;;;;;;6209109;28;20026;-73
2022/06/06 02:49:03;;;;;;;0.30;0.30;;;22.10;44.90;;;;;;6191629;28;20038;-73
2022/06/06 02:52:05;;;;;;;0.30;0.30;;;22.20;45.00;;;;;;6213059;28;20026;-72
2022/06/06 02:55:08;;;;;;;0.30;0.30;;;22.20;45.00;;;;;;6217994;28;20037;-72
2022/06/06 02:58:09;;;;;;;0.40;0.38;;;22.20;45.00;;;;;;6205675;28;20030;-73
2022/06/06 03:01:10;;;;;;;0.35;0.30;;;22.20;45.00;;;;;;6208831;28;20386;-73
2022/06/06 03:04:11;;;;;;;0.57;0.40;;;22.20;45.00;;;;;;6194164;28;20023;-73
2022/06/06 03:07:40;;;;;;;0.30;0.30;;;22.20;44.90;;;;;;6210800;28;20388;-73
2022/06/06 03:11:26;;;;;;;0.30;0.30;;;22.20;44.80;;;;;;6215104;28;20065;-72
2022/06/06 03:14:50;;;;;;;0.40;0.40;;;22.20;44.90;;;;;;6178249;28;20073;-73
2022/06/06 03:21:35;;;;;;;0.80;0.60;;;22.20;44.80;;;;;;6215773;28;20030;-73
2022/06/06 03:24:49;;;;;;;0.40;0.40;;;22.20;44.70;;;;;;6199710;28;20376;-72
2022/06/06 03:28:11;;;;;;;0.35;0.35;;;22.20;44.70;;;;;;6143015;29;20067;-72
2022/06/06 03:31:17;;;;;;;0.30;0.30;;;22.20;44.70;;;;;;6147849;28;20532;-72
2022/06/06 03:34:35;;;;;;;0.50;0.40;;;22.20;44.60;;;;;;6148052;29;20055;-72
2022/06/06 03:38:08;;;;;;;0.82;0.40;;;22.20;44.60;;;;;;6147896;29;20100;-73
2022/06/06 03:41:26;;;;;;;0.30;0.28;;;22.20;44.60;;;;;;6116436;29;20501;-73
2022/06/06 03:44:48;;;;;;;0.40;0.40;;;22.20;44.60;;;;;;6147705;28;20337;-73
2022/06/06 03:48:10;;;;;;;0.35;0.32;;;22.20;44.60;;;;;;6147822;29;20321;-72
2022/06/06 03:51:37;;;;;;;0.40;0.40;;;22.20;44.60;;;;;;6147493;29;20427;-73
2022/06/06 03:54:47;;;;;;;0.38;0.38;;;22.20;44.60;;;;;;6147637;29;20062;-72
2022/06/06 03:57:49;;;;;;;0.40;0.40;;;22.30;44.60;;;;;;6159416;28;20046;-73
2022/06/06 04:00:52;;;;;;;1.33;0.55;;;22.20;44.60;;;;;;6199086;28;20113;-73
2022/06/06 04:03:54;;;;;;;0.40;0.40;;;22.30;44.60;;;;;;6221034;28;20091;-73
2022/06/06 04:07:00;;;;;;;0.30;0.30;;;22.20;44.50;;;;;;6222658;28;20021;-73
2022/06/06 04:10:03;;;;;;;0.50;0.40;;;22.30;44.60;;;;;;6223106;28;20024;-73
2022/06/06 04:13:15;;;;;;;0.30;0.30;;;22.30;44.60;;;;;;6206855;28;20045;-73
2022/06/06 04:16:38;;;;;;;0.52;0.40;;;22.20;44.50;;;;;;6198409;28;20025;-73
2022/06/06 04:19:46;;;;;;;0.40;0.40;;;22.30;44.50;;;;;;6198853;28;20018;-73
2022/06/06 04:22:50;;;;;;;0.40;0.30;;;22.30;44.60;;;;;;6209210;28;20026;-72
2022/06/06 04:25:56;;;;;;;0.40;0.30;;;22.30;44.50;;;;;;6219359;28;20034;-73
2022/06/06 04:29:25;;;;;;;0.40;0.40;;;22.30;44.50;;;;;;6221399;28;20022;-73
2022/06/06 04:32:53;;;;;;;0.43;0.40;;;22.20;44.40;;;;;;6213358;28;20066;-73
2022/06/06 04:36:16;;;;;;;0.52;0.45;;;22.30;44.40;;;;;;6197353;28;20469;-74
2022/06/06 04:39:28;;;;;;;0.35;0.30;;;22.30;44.40;;;;;;6197871;28;20018;-73
2022/06/06 04:43:04;;;;;;;0.70;0.50;;;22.30;44.30;;;;;;6186600;28;20026;-73
2022/06/06 04:46:21;;;;;;;0.30;0.30;;;22.30;44.40;;;;;;6218466;28;20041;-73
2022/06/06 04:49:22;;;;;;;0.55;0.40;;;22.30;44.40;;;;;;6200809;28;20109;-73
2022/06/06 04:52:24;;;;;;;0.50;0.50;;;22.30;44.30;;;;;;6198373;28;20034;-72
2022/06/06 04:55:26;;;;;;;0.52;0.50;;;22.30;44.30;;;;;;6222354;28;20025;-73
2022/06/06 04:58:31;;;;;;;0.30;0.30;;;22.30;44.30;;;;;;6209017;28;20030;-73
2022/06/06 05:01:33;;;;;;;0.20;0.20;;;22.30;44.30;;;;;;6196710;28;20022;-73
2022/06/06 05:04:33;;;;;;;0.40;0.40;;;22.30;44.30;;;;;;6216830;28;20092;-73
2022/06/06 05:07:52;;;;;;;0.40;0.40;;;22.30;44.30;;;;;;6218034;28;20424;-73
2022/06/06 05:11:15;;;;;;;0.32;0.32;;;22.30;44.30;;;;;;6197308;28;20080;-73
2022/06/06 05:14:28;;;;;;;0.52;0.43;;;22.30;44.20;;;;;;6213955;28;20036;-74
2022/06/06 05:17:34;;;;;;;0.30;0.30;;;22.30;44.20;;;;;;6219594;28;20056;-72
2022/06/06 05:20:43;;;;;;;0.40;0.35;;;22.30;44.20;;;;;;6197138;28;20034;-73
2022/06/06 05:23:44;;;;;;;0.40;0.40;;;22.30;44.10;;;;;;6204974;28;20368;-73
2022/06/06 05:27:04;;;;;;;0.47;0.40;;;22.30;44.20;;;;;;6222378;28;20022;-72
2022/06/06 05:30:19;;;;;;;0.30;0.30;;;22.30;44.20;;;;;;6198812;28;20366;-72
2022/06/06 05:33:26;;;;;;;0.30;0.30;;;22.30;44.10;;;;;;6196063;28;20058;-72
2022/06/06 05:36:52;;;;;;;0.30;0.30;;;22.30;44.10;;;;;;6195753;28;20034;-72
2022/06/06 05:40:18;;;;;;;0.40;0.40;;;22.30;44.10;;;;;;6210315;28;20026;-72
2022/06/06 05:43:44;;;;;;;0.43;0.40;;;22.30;44.10;;;;;;6216077;28;20038;-72
2022/06/06 05:47:00;;;;;;;0.47;0.40;;;22.30;44.10;;;;;;6196358;28;20559;-73
2022/06/06 05:50:21;;;;;;;0.30;0.30;;;22.30;44.10;;;;;;6214320;28;20022;-72
2022/06/06 05:53:50;;;;;;;0.30;0.30;;;22.30;44.10;;;;;;6214342;28;20390;-72
2022/06/06 05:57:16;;;;;;;0.50;0.50;;;22.20;44.70;;;;;;6195770;28;20073;-73
2022/06/06 06:00:54;;;;;;;0.30;0.30;;;22.10;45.90;;;;;;6201380;28;20513;-73
2022/06/06 06:04:31;;;;;;;0.30;0.30;;;22.00;46.10;;;;;;6216757;28;20041;-72
2022/06/06 06:07:53;;;;;;;0.40;0.40;;;22.00;46.60;;;;;;6222096;28;20068;-72
2022/06/06 06:11:32;;;;;;;0.45;0.40;;;21.90;46.50;;;;;;6222073;28;20028;-73
2022/06/06 06:15:13;;;;;;;1.73;0.93;;;21.90;47.00;;;;;;6193034;28;20046;-72
2022/06/06 06:18:22;;;;;;;1.10;0.47;;;21.90;47.20;;;;;;6218455;28;20018;-72
2022/06/06 06:21:41;;;;;;;0.75;0.60;;;21.80;47.30;;;;;;6197807;28;20421;-72
2022/06/06 06:24:42;;;;;;;0.90;0.60;;;21.80;47.20;;;;;;6208411;28;20030;-72
2022/06/06 06:27:43;;;;;;;0.50;0.50;;;21.80;47.30;;;;;;6221811;28;20057;-71
2022/06/06 06:31:22;;;;;;;0.45;0.43;;;21.80;47.40;;;;;;6221906;28;20083;-73
2022/06/06 06:35:08;;;;;;;0.85;0.50;;;21.80;47.50;;;;;;6214682;28;20493;-72
2022/06/06 06:38:20;;;;;;;0.70;0.70;;;21.80;47.70;;;;;;6195154;28;20038;-73
2022/06/06 06:41:54;;;;;;;1.05;0.63;;;21.80;47.90;;;;;;6197662;28;20022;-72
2022/06/06 06:45:10;;;;;;;0.55;0.55;;;21.70;48.00;;;;;;6207282;28;20477;-72
2022/06/06 06:48:22;;;;;;;0.70;0.47;;;21.70;48.20;;;;;;6221061;28;20026;-72
2022/06/06 06:51:39;;;;;;;0.50;0.50;;;21.70;48.20;;;;;;6182213;28;20769;-72
2022/06/06 06:54:46;;;;;;;3.70;0.63;;;21.70;48.30;;;;;;6211821;28;20117;-72
2022/06/06 06:57:49;;;;;;;0.82;0.60;;;21.70;48.30;;;;;;6196998;28;20053;-72
2022/06/06 07:00:55;;;;;;;0.47;0.40;;;21.70;48.50;;;;;;6211920;28;20030;-72
2022/06/06 07:11:41;;;;;;;0.77;0.60;;;21.70;48.60;;;;;;6196920;28;20034;-72
2022/06/06 07:15:03;;;;;;;0.50;0.50;;;21.70;48.50;;;;;;6201348;28;20034;-73
2022/06/06 07:18:06;;;;;;;0.40;0.40;;;21.70;48.60;;;;;;6222066;28;20087;-72
2022/06/06 07:21:08;;;;;;;0.50;0.50;;;21.70;48.60;;;;;;6207445;28;20035;-73
2022/06/06 07:24:17;;;;;;;0.57;0.40;;;21.70;48.50;;;;;;6193493;28;20467;-73
2022/06/06 07:27:17;;;;;;;0.90;0.50;;;21.70;48.70;;;;;;6203452;28;20041;-72
2022/06/06 07:30:21;;;;;;;0.50;0.50;;;21.70;48.60;;;;;;6213950;28;20030;-72
2022/06/06 07:33:51;;;;;;;0.70;0.60;;;21.70;48.30;;;;;;6196622;28;20378;-72
2022/06/06 07:37:14;;;;;;;0.47;0.47;;;21.70;48.30;;;;;;6191104;28;20122;-72
2022/06/06 07:40:42;;;;;;;0.40;0.40;;;21.70;48.40;;;;;;6191544;28;20034;-72
2022/06/06 07:44:10;;;;;;;0.35;0.35;;;21.70;48.40;;;;;;6221236;28;20406;-72
2022/06/06 07:47:32;;;;;;;0.50;0.40;;;21.60;48.20;;;;;;6200909;28;20054;-72
2022/06/06 07:51:10;;;;;;;0.40;0.40;;;21.60;48.20;;;;;;6201844;28;20120;-72
2022/06/06 07:54:47;;;;;;;0.40;0.40;;;21.70;48.40;;;;;;6176771;28;20137;-72
2022/06/06 07:58:12;;;;;;;0.70;0.45;;;21.60;48.30;;;;;;6197247;28;20453;-72
2022/06/06 08:01:32;;;;;;;0.43;0.43;;;21.60;48.40;;;;;;6131305;29;20395;-73
2022/06/06 08:05:18;;;;;;;0.52;0.43;;;21.60;48.40;;;;;;6160167;28;20089;-74
2022/06/06 08:08:40;;;;;;;0.50;0.50;;;21.60;48.50;;;;;;6104866;29;20147;-72
2022/06/06 08:11:52;;;;;;;0.40;0.40;;;21.60;48.40;;;;;;6150369;28;20516;-72
2022/06/06 08:15:16;;;;;;;0.93;0.40;;;21.60;48.40;;;;;;6173405;28;20047;-72
2022/06/06 08:18:40;;;;;;;0.57;0.40;;;21.60;48.50;;;;;;6149697;28;20046;-72
2022/06/06 08:21:47;;;;;;;0.40;0.40;;;21.60;48.60;;;;;;6160452;28;20122;-72
2022/06/06 08:24:52;;;;;;;0.85;0.50;;;21.60;48.50;;;;;;6173670;28;20452;-73
2022/06/06 08:27:56;;;;;;;0.63;0.50;;;21.60;48.50;;;;;;6173270;28;20470;-72
2022/06/06 08:30:57;;;;;;;3.03;0.40;;;21.60;48.60;;;;;;6174963;28;20039;-72
2022/06/06 08:33:58;;;;;;;0.40;0.40;;;21.60;48.60;;;;;;6182279;28;20062;-73
2022/06/06 08:37:26;;;;;;;0.32;0.32;;;21.60;48.70;;;;;;6199993;28;20489;-72
2022/06/06 08:40:56;;;;;;;0.55;0.30;;;21.60;48.70;;;;;;6200299;28;20019;-72
2022/06/06 08:44:04;;;;;;;0.40;0.40;;;21.60;48.70;;;;;;6200423;28;20026;-72
2022/06/06 08:47:39;;;;;;;0.80;0.60;;;21.60;49.10;;;;;;6199854;28;20029;-72
2022/06/06 08:50:49;;;;;;;0.35;0.35;;;21.60;48.90;;;;;;6199999;28;20054;-72
2022/06/06 08:54:24;;;;;;;0.40;0.40;;;21.60;48.80;;;;;;6215221;28;20107;-72
2022/06/06 08:57:43;;;;;;;0.30;0.30;;;21.60;48.90;;;;;;6207673;28;20040;-73
2022/06/06 09:01:29;;;;;;;0.95;0.65;;;21.60;48.90;;;;;;6208033;28;20030;-73
2022/06/06 09:04:48;;;;;;;0.40;0.40;;;21.60;49.00;;;;;;6211015;28;20026;-74
2022/06/06 09:08:16;;;;;;;0.32;0.32;;;21.60;49.20;;;;;;6197705;28;20026;-73
2022/06/06 09:11:40;;;;;;;0.55;0.55;;;21.60;49.20;;;;;;6220258;28;20476;-73
2022/06/06 09:15:08;;;;;;;0.30;0.30;;;21.60;49.20;;;;;;6201465;28;20523;-72
2022/06/06 09:18:48;;;;;;;0.25;0.25;;;21.60;49.20;;;;;;6205971;28;20038;-73
2022/06/06 09:22:13;;;;;;;0.35;0.35;;;21.60;49.30;;;;;;6208216;28;20106;-74
2022/06/06 09:25:26;;;;;;;0.40;0.40;;;21.60;49.30;;;;;;6218086;28;20025;-73
2022/06/06 09:28:45;;;;;;;0.38;0.38;;;21.60;49.30;;;;;;6205432;28;20433;-73
2022/06/06 09:32:07;;;;;;;0.30;0.30;;;21.60;49.30;;;;;;6215245;28;20041;-73
2022/06/06 09:35:45;;;;;;;0.50;0.32;;;21.50;49.20;;;;;;6219082;28;20058;-73
2022/06/06 09:39:04;;;;;;;0.40;0.40;;;21.50;49.20;;;;;;6203024;28;20496;-73
2022/06/06 09:42:15;;;;;;;0.40;0.40;;;21.60;49.30;;;;;;6200185;28;20072;-73
2022/06/06 09:45:19;;;;;;;0.30;0.30;;;21.60;49.40;;;;;;6193673;28;20662;-72
2022/06/06 09:48:25;;;;;;;0.35;0.35;;;21.60;49.40;;;;;;6211898;28;20023;-73
2022/06/06 09:51:29;;;;;;;0.73;0.63;;;21.50;49.30;;;;;;6202854;28;20037;-73
2022/06/06 10:01:51;;;;;;;0.32;0.32;;;21.60;49.40;;;;;;6220168;28;20064;-73
2022/06/06 10:05:10;;;;;;;0.40;0.40;;;21.50;49.30;;;;;;6200854;28;20080;-73
2022/06/06 10:08:26;;;;;;;0.40;0.40;;;21.50;49.30;;;;;;6201404;28;20377;-73
2022/06/06 10:11:38;;;;;;;0.55;0.40;;;21.60;49.50;;;;;;6220137;28;20037;-73
2022/06/06 10:14:44;;;;;;;0.43;0.38;;;21.50;49.30;;;;;;6199237;28;20026;-73
2022/06/06 10:18:04;;;;;;;0.40;0.40;;;21.60;49.50;;;;;;6200219;28;20102;-73
2022/06/06 10:21:35;;;;;;;0.40;0.40;;;21.50;49.30;;;;;;6218233;28;20063;-73
2022/06/06 10:24:42;;;;;;;0.30;0.30;;;21.60;49.40;;;;;;6195538;28;20029;-73
2022/06/06 10:27:45;;;;;;;0.40;0.30;;;21.50;49.40;;;;;;6196896;28;20030;-73
2022/06/06 10:31:07;;;;;;;0.40;0.40;;;21.50;49.40;;;;;;6218985;28;20037;-73
2022/06/06 10:34:20;;;;;;;0.50;0.50;;;21.50;49.40;;;;;;6203325;28;20109;-73
2022/06/06 10:37:24;;;;;;;0.30;0.30;;;21.50;49.40;;;;;;6195221;28;20026;-73
2022/06/06 10:40:49;;;;;;;0.32;0.32;;;21.50;49.40;;;;;;6195571;28;20019;-73
2022/06/06 10:44:12;;;;;;;0.32;0.32;;;21.50;49.50;;;;;;6204901;28;20021;-73
2022/06/06 10:47:31;;;;;;;0.50;0.30;;;21.50;49.40;;;;;;6202071;28;20030;-73
2022/06/06 10:54:42;;;;;;;0.40;0.40;;;21.50;49.50;;;;;;6196838;28;20508;-73
2022/06/06 10:57:55;;;;;;;0.40;0.40;;;21.50;49.40;;;;;;6219405;28;20022;-73
2022/06/06 11:01:05;;;;;;;0.40;0.40;;;21.50;49.50;;;;;;6180056;28;20393;-73
2022/06/06 11:04:14;;;;;;;0.32;0.32;;;21.50;49.50;;;;;;6204024;28;20019;-73
2022/06/06 11:07:53;;;;;;;0.45;0.45;;;21.50;49.50;;;;;;6195207;28;20380;-74
2022/06/06 11:11:09;;;;;;;0.30;0.30;;;21.50;49.50;;;;;;6123059;28;20524;-72
2022/06/06 11:14:17;;;;;;;;;;;21.50;49.50;;;;;;6211684;28;20089;-72
2022/06/06 11:17:36;;;;;;;0.80;0.50;;;21.50;49.50;;;;;;6194284;28;19960;-73
2022/06/06 11:20:52;;;;;;;0.45;0.40;;;21.50;49.50;;;;;;6209763;28;20018;-73
2022/06/06 11:24:18;;;;;;;0.30;0.30;;;21.50;49.50;;;;;;6214364;28;20407;-73
2022/06/06 11:27:44;;;;;;;0.47;0.38;;;21.50;49.50;;;;;;6206090;28;20489;-72
2022/06/06 11:30:54;;;;;;;0.40;0.40;;;21.50;49.50;;;;;;6217369;28;20018;-72
2022/06/06 11:34:24;;;;;;;0.30;0.30;;;21.50;49.50;;;;;;6203790;28;20389;-73
2022/06/06 11:37:41;;;;;;;0.30;0.30;;;21.50;49.50;;;;;;6159091;28;20052;-73
2022/06/06 11:40:58;;;;;;;0.40;0.40;;;21.50;49.50;;;;;;6215371;28;20037;-72
2022/06/06 11:44:37;;;;;;;0.30;0.30;;;21.50;49.50;;;;;;6222982;28;20025;-73
2022/06/06 11:47:59;;;;;;;0.30;0.30;;;21.50;49.60;;;;;;6224771;28;20040;-73
2022/06/06 11:51:27;;;;;;;0.40;0.40;;;21.50;49.60;;;;;;6222468;28;20112;-73
2022/06/06 11:54:45;;;;;;;0.30;0.30;;;21.50;49.60;;;;;;6202067;28;20065;-73
2022/06/06 11:57:59;;;;;;;0.40;0.38;;;21.50;49.60;;;;;;6192619;28;20493;-73
2022/06/06 12:01:22;;;;;;;0.30;0.30;;;21.50;49.60;;;;;;6187594;28;20030;-73
2022/06/06 12:05:02;;;;;;;0.30;0.30;;;21.50;49.60;;;;;;6206211;28;20015;-73
2022/06/06 12:08:05;;;;;;;0.38;0.38;;;21.50;49.60;;;;;;6204906;28;20050;-73
2022/06/06 12:11:10;;;;;;;0.25;0.25;;;21.50;49.70;;;;;;6192151;28;20026;-73
2022/06/06 12:14:39;;;;;;;0.35;0.30;;;21.50;49.60;;;;;;6190726;28;20027;-73
2022/06/06 12:18:27;;;;;;;0.38;0.38;;;21.50;49.70;;;;;;6184072;28;20035;-73
2022/06/06 12:21:40;;;;;;;0.40;0.30;;;21.50;49.70;;;;;;6192820;28;20026;-74
2022/06/06 12:24:49;;;;;;;0.40;0.28;;;21.50;49.60;;;;;;6195505;28;20026;-73
2022/06/06 12:28:02;;;;;;;0.30;0.30;;;21.50;49.70;;;;;;6223580;28;20109;-73
2022/06/06 12:31:08;;;;;;;0.57;0.30;;;21.50;49.70;;;;;;6210876;28;20489;-73
2022/06/06 12:34:10;;;;;;;0.30;0.30;;;21.50;49.70;;;;;;6181545;28;20405;-73
2022/06/06 12:37:15;;;;;;;0.32;0.32;;;21.50;49.70;;;;;;6199035;28;20442;-73
2022/06/06 12:40:26;;;;;;;;;;;21.50;49.70;;;;;;6200270;28;20409;-73
2022/06/06 12:43:29;;;;;;;0.28;0.28;;;21.50;49.70;;;;;;6181593;28;20000;-73
2022/06/06 12:47:07;;;;;;;0.20;0.20;;;21.50;49.70;;;;;;6196103;28;20157;-73
2022/06/06 12:50:19;;;;;;;0.30;0.30;;;21.50;49.70;;;;;;6205598;28;20046;-73
2022/06/06 12:54:05;;;;;;;0.40;0.40;;;21.50;49.70;;;;;;6222998;28;20029;-73
2022/06/06 12:57:07;;;;;;;0.30;0.30;;;21.50;49.70;;;;;;6205307;28;20129;-73
2022/06/06 13:00:12;;;;;;;0.38;0.38;;;21.50;49.70;;;;;;6223095;28;20062;-74
2022/06/06 13:03:43;;;;;;;0.50;0.40;;;21.50;49.70;;;;;;6223383;28;20109;-73
2022/06/06 13:06:56;;;;;;;1.25;0.35;;;21.50;49.80;;;;;;6209384;28;20025;-73
2022/06/06 13:10:08;;;;;;;0.20;0.20;;;21.50;49.80;;;;;;6198849;28;20158;-73
2022/06/06 13:13:34;;;;;;;0.40;0.40;;;21.50;49.80;;;;;;6197182;28;20034;-73
2022/06/06 13:17:22;;;;;;;0.40;0.40;;;21.50;49.80;;;;;;6207593;28;20029;-73
2022/06/06 13:20:57;;;;;;;0.47;0.22;;;21.50;49.80;;;;;;6204530;28;20035;-73
2022/06/06 13:24:19;;;;;;;0.20;0.20;;;21.50;49.80;;;;;;6222282;28;20033;-73
2022/06/06 13:27:53;;;;;;;0.30;0.30;;;21.50;49.80;;;;;;6206556;28;20429;-73
2022/06/06 13:31:13;;;;;;;0.40;0.40;;;21.50;49.80;;;;;;6200619;28;20489;-73
2022/06/06 13:34:17;;;;;;;0.20;0.20;;;21.50;49.90;;;;;;6197950;28;20571;-73
2022/06/06 13:37:36;;;;;;;0.30;0.30;;;21.50;49.90;;;;;;6201294;28;20019;-73
2022/06/06 13:40:49;;;;;;;0.22;0.22;;;21.50;49.90;;;;;;6198361;28;20022;-73
2022/06/06 13:44:19;;;;;;;0.20;0.20;;;21.50;49.80;;;;;;6198098;28;20388;-73
2022/06/06 13:47:28;;;;;;;0.25;0.25;;;21.50;49.90;;;;;;6197821;28;20504;-73
2022/06/06 13:51:02;;;;;;;0.30;0.30;;;21.50;49.90;;;;;;6216210;28;20081;-73
2022/06/06 13:54:10;;;;;;;0.25;0.25;;;21.50;49.90;;;;;;6197129;28;20026;-73
2022/06/06 13:57:26;;;;;;;0.20;0.20;;;21.50;49.90;;;;;;6195237;28;20057;-73
2022/06/06 14:00:57;;;;;;;0.80;0.28;;;21.50;49.90;;;;;;6221304;28;20100;-73
2022/06/06 14:04:19;;;;;;;0.60;0.25;;;21.50;49.90;;;;;;6160899;28;20041;-73
2022/06/06 14:07:59;;;;;;;0.50;0.30;;;21.50;49.90;;;;;;6197233;28;20023;-73
2022/06/06 14:11:07;;;;;;;1.00;0.30;;;21.50;50.00;;;;;;6149212;28;20043;-73
2022/06/06 14:14:08;;;;;;;0.30;0.30;;;21.50;50.00;;;;;;6203698;28;20030;-73
2022/06/06 14:17:11;;;;;;;0.30;0.30;;;21.50;50.00;;;;;;6201651;28;20026;-73
2022/06/06 14:20:22;;;;;;;0.30;0.30;;;21.50;49.80;;;;;;6204015;28;20057;-73
2022/06/06 14:23:32;;;;;;;0.40;0.40;;;21.50;49.80;;;;;;6204424;28;20409;-73
2022/06/06 14:26:33;;;;;;;0.30;0.30;;;21.50;49.80;;;;;;6196539;28;20542;-73
2022/06/06 14:29:58;;;;;;;0.30;0.30;;;21.50;49.70;;;;;;6197411;28;20022;-74
2022/06/06 14:33:01;;;;;;;0.30;0.30;;;21.50;49.70;;;;;;6196856;28;20049;-73
2022/06/06 14:36:16;;;;;;;0.20;0.20;;;21.50;49.70;;;;;;6197720;28;20105;-73
2022/06/06 14:39:21;;;;;;;;;;;21.50;49.70;;;;;;6202064;28;20052;-74
2022/06/06 14:42:31;;;;;;;0.22;0.22;;;21.60;49.70;;;;;;6215468;28;19906;-73
2022/06/06 14:45:36;;;;;;;0.20;0.20;;;21.60;49.70;;;;;;6197243;28;20031;-73
2022/06/06 14:48:42;;;;;;;;;;;21.60;49.70;;;;;;6179724;28;20033;-75
2022/06/06 14:51:43;;;;;;;0.20;0.20;;;21.60;49.70;;;;;;6217100;28;19910;-72
2022/06/06 14:54:57;;;;;;;0.20;0.20;;;21.60;49.70;;;;;;6221054;28;20029;-73
2022/06/06 14:58:05;;;;;;;0.13;0.13;;;21.60;49.70;;;;;;6212079;28;20014;-74
2022/06/06 15:01:21;;;;;;;0.32;0.30;;;21.60;49.70;;;;;;6209049;28;20025;-73
2022/06/06 15:04:27;;;;;;;0.20;0.20;;;21.50;49.70;;;;;;6202645;28;20350;-73
2022/06/06 15:07:45;;;;;;;1.05;0.20;;;21.50;49.80;;;;;;6195756;28;20450;-73
2022/06/06 15:10:52;;;;;;;0.30;0.30;;;21.60;50.00;;;;;;6196602;28;20505;-73
2022/06/06 15:13:56;;;;;;;0.20;0.20;;;21.60;50.00;;;;;;6212562;28;20045;-72
2022/06/06 15:16:58;;;;;;;0.20;0.20;;;21.60;49.90;;;;;;6226248;28;20041;-72
2022/06/06 15:20:03;;;;;;;2.83;0.30;;;21.60;49.90;;;;;;6180447;28;20030;-76
2022/06/06 15:23:18;;;;;;;0.30;0.30;;;21.60;49.90;;;;;;6197960;28;20022;-73
2022/06/06 15:26:34;;;;;;;0.50;0.40;;;21.60;49.90;;;;;;6200121;28;20015;-68
2022/06/06 15:29:56;;;;;;;1.48;0.47;;;21.60;50.50;;;;;;6219286;28;20381;-68
2022/06/06 15:33:03;;;;;;;4.38;0.47;;;21.70;50.10;;;;;;6213164;28;20056;-69
2022/06/06 15:36:31;;;;;;;16.25;0.50;;;21.70;50.80;;;;;;6225549;28;20026;-70
2022/06/06 15:39:46;;;;;;;10.85;0.65;;;21.80;52.20;;;;;;6209748;28;20026;-70
2022/06/06 15:43:11;;;;;;;8.90;0.60;;;21.80;51.70;;;;;;6203143;28;20022;-69
2022/06/06 15:46:16;;;;;;;0.85;0.45;;;21.70;51.20;;;;;;6225353;28;20025;-70
2022/06/06 15:49:28;;;;;;;;;;;21.70;51.10;;;;;;6213519;28;20030;-69
2022/06/06 15:52:49;;;;;;;1.15;0.45;;;21.70;50.90;;;;;;6224946;28;19959;-70
2022/06/06 15:56:24;;;;;;;1.95;0.47;;;21.70;50.90;;;;;;6200904;28;20038;-70
2022/06/06 15:59:47;;;;;;;1.38;0.70;;;21.70;50.70;;;;;;6212684;28;20022;-70
2022/06/06 16:03:11;;;;;;;4.75;0.60;;;21.70;50.90;;;;;;6215638;28;20033;-69
2022/06/06 16:06:13;;;;;;;1.85;0.52;;;21.80;51.00;;;;;;6216484;28;20403;-71
2022/06/06 16:09:21;;;;;;;4.28;0.50;;;21.80;51.70;;;;;;6215484;28;20030;-71
2022/06/06 16:12:57;;;;;;;2.47;0.40;;;21.80;52.40;;;;;;6200593;28;20030;-72
2022/06/06 16:16:17;;;;;;;9.20;0.82;;;21.80;52.20;;;;;;6172797;28;20043;-71
2022/06/06 16:19:24;;;;;;;4.13;0.50;;;21.80;52.70;;;;;;6207049;28;20051;-71
2022/06/06 16:22:35;;;;;;;9.23;0.93;;;21.80;52.60;;;;;;6223112;28;20080;-71
2022/06/06 16:25:54;;;;;;;1.85;0.55;;;21.80;52.30;;;;;;6220797;28;20034;-71
2022/06/06 16:28:59;;;;;;;5.25;0.45;;;21.80;52.10;;;;;;6218334;28;20019;-71
2022/06/06 16:32:32;;;;;;;2.70;0.40;;;21.80;51.90;;;;;;6197673;28;20043;-67
2022/06/06 16:35:58;;;;;;;11.68;0.70;;;21.80;52.20;;;;;;6187038;28;20128;-70
2022/06/06 16:39:02;;;;;;;5.80;0.75;;;21.80;52.90;;;;;;6200443;28;20025;-68
2022/06/06 16:49:37;;;;;;;6.63;0.85;;;21.80;52.10;;;;;;6200223;28;20030;-68
2022/06/06 16:53:20;;;;;;;3.60;0.55;;;21.80;51.90;;;;;;6197230;28;20035;-68
2022/06/06 16:56:26;;;;;;;7.10;0.55;;;21.80;51.90;;;;;;6209153;28;20045;-70
2022/06/06 16:59:43;;;;;;;11.18;0.90;;;21.90;52.90;;;;;;6221277;28;20022;-71
2022/06/06 17:02:57;;;;;;;9.90;0.70;;;21.90;53.40;;;;;;6216437;28;20434;-72
2022/06/06 17:10:11;;;;;;;5.18;0.70;;;21.90;54.30;;;;;;6206263;28;20564;-71
2022/06/06 17:13:38;;;;;;;7.32;0.88;;;21.90;54.10;;;;;;6221564;28;20436;-72
2022/06/06 17:16:39;;;;;;;5.53;0.90;;;21.90;53.60;;;;;;6201337;28;20018;-71
2022/06/06 17:19:42;;;;;;;5.00;0.73;;;21.90;53.40;;;;;;6200088;28;20056;-74
2022/06/06 17:22:42;;;;;;;6.40;0.63;;;21.90;53.20;;;;;;6218056;28;20041;-71
2022/06/06 17:25:49;;;;;;;3.20;0.70;;;21.80;52.90;;;;;;6209535;28;20057;-72
2022/06/06 17:29:00;;;;;;;1.88;0.50;;;21.80;52.70;;;;;;6196889;28;20054;-72
2022/06/06 17:32:13;;;;;;;3.53;0.60;;;21.80;52.60;;;;;;6196572;28;20073;-72